Forside
METAR-TAF:

METAR-TAF

Lufthavne :

Albert, Frankrig

Breddekreds: 49-58-21N, længdekreds: 002-41-29E, højde: 111 m

Aktuelle vejr

Denne rapport blev lavet for 15 minutter siden, kl. 01:30 UTC
Vind 4 kt fra vest
Temperatur 11°C
Fugtighed 94%
Tryk 1033 hPa
Sigt 10 km eller mere
ingen skyer under 1500m og ingen cumulonimbus

METAR: LFAQ 250130Z AUTO 27004KT CAVOK 11/10 Q1033

Tid: 03:45 (01:45 UTC)

Vejrudsigter

Denne rapport blev lavet for 11 timer og 45 minutter siden, kl. 14:00 UTC
Foreløbig gælder fra 24 på 15 UTC til 24 på 24 UTC
Vind 13 kt fra vestnordvest
Sigt 10 km eller mere
Brudte skyer i en højde af 3700 ft
ændring
fra 24 på 20 UTC til 24 på 21 UTC
Vind 2 kt fra varierende retninger

TAF: LFAQ 241400Z 2415/2424 30013KT 9999 BKN037 BECMG 2420/2421 VRB02KT

Vejrobservationer og prognoser fra mere end 4000 lufthavne (METAR og TAF).

De gule og røde prikker repræsenterer de meteorologiske stationer.

Flyt musen over at se navnet på stationen.

Så klik over at se vejr observationer og prognoser.

At skifte det kort: Klik på de grønne knapper med et sort kors for at zoome ind; på den grønne knap med en bindestreg for at zoome ud; eller på de grønne pile for tilstødende kort.


METAR-TAF: